Time;durP1;ratioP1;P1;durP2;ratioP2;P2;SDS_P1;SDS_P2;PMS_P1;PMS_P2;Temp;Humidity;BMP_temperature;BMP_pressure;BME280_temperature;BME280_humidity;BME280_pressure;Samples;Min_cycle;Max_cycle;Signal;HPM_P1;HPM_P2
2020/12/28 00:01:35;;;;;;;7.07;3.00;;;;;;;2.44;85.82;97886.97;10301096;28;20044;-64
2020/12/28 00:06:31;;;;;;;6.70;3.58;;;;;;;2.40;85.98;97887.97;10309179;28;20040;-63
2020/12/28 00:11:27;;;;;;;6.65;2.92;;;;;;;2.45;86.14;97895.84;10312870;28;20055;-62
2020/12/28 00:16:24;;;;;;;5.80;2.85;;;;;;;2.45;85.96;97891.22;10311429;28;20045;-64
2020/12/28 00:21:20;;;;;;;5.03;2.75;;;;;;;2.48;86.05;97881.69;10322210;28;20044;-64
2020/12/28 00:26:16;;;;;;;4.97;2.80;;;;;;;2.56;85.98;97880.81;10318233;28;20041;-64
2020/12/28 00:31:12;;;;;;;4.32;2.22;;;;;;;2.47;85.85;97890.91;10326013;28;20047;-64
2020/12/28 00:36:08;;;;;;;4.63;2.38;;;;;;;2.54;86.28;97877.66;10308153;28;20044;-63
2020/12/28 00:41:04;;;;;;;4.63;2.90;;;;;;;2.58;85.83;97873.19;10302320;28;20044;-64
2020/12/28 00:46:00;;;;;;;5.70;2.55;;;;;;;2.60;86.18;97889.81;10306396;28;20051;-64
2020/12/28 00:50:56;;;;;;;5.25;2.47;;;;;;;2.61;85.52;97879.81;10301836;28;20045;-64
2020/12/28 00:55:52;;;;;;;5.75;2.30;;;;;;;2.66;85.40;97879.59;10305476;28;20045;-65
2020/12/28 01:00:48;;;;;;;4.50;2.17;;;;;;;2.62;85.54;97875.97;10320761;28;20127;-64
2020/12/28 01:05:45;;;;;;;5.30;2.50;;;;;;;2.74;85.19;97892.22;10326290;28;20091;-64
2020/12/28 01:10:43;;;;;;;4.00;2.33;;;;;;;2.76;85.15;97878.38;10317020;28;20052;-64
2020/12/28 01:15:39;;;;;;;4.57;2.20;;;;;;;2.83;84.62;97878.59;10319290;28;20102;-65
2020/12/28 01:20:39;;;;;;;4.38;2.50;;;;;;;2.91;84.61;97869.63;10316463;28;20650;-64
2020/12/28 01:25:35;;;;;;;3.85;2.00;;;;;;;2.91;84.18;97875.03;10297572;28;20456;-66
2020/12/28 01:30:31;;;;;;;3.92;1.85;;;;;;;2.92;83.97;97881.97;10314576;28;20045;-65
2020/12/28 01:35:28;;;;;;;4.63;2.10;;;;;;;2.94;84.13;97877.03;10304102;28;20049;-65
2020/12/28 01:40:24;;;;;;;3.95;1.90;;;;;;;2.93;83.36;97878.19;10328645;28;20044;-65
2020/12/28 01:45:20;;;;;;;3.60;1.77;;;;;;;2.94;83.53;97874.34;10324305;28;20044;-65
2020/12/28 01:50:17;;;;;;;4.55;1.67;;;;;;;3.07;83.79;97889.44;10322440;28;20048;-65
2020/12/28 01:55:13;;;;;;;4.75;1.80;;;;;;;3.09;83.48;97886.41;10305269;28;20102;-65
2020/12/28 02:00:09;;;;;;;3.35;1.60;;;;;;;3.15;83.08;97890.44;10318059;28;20164;-64
2020/12/28 02:05:05;;;;;;;4.57;1.60;;;;;;;3.12;83.21;97891.91;10312650;28;20060;-64
2020/12/28 02:10:05;;;;;;;3.63;1.95;;;;;;;3.14;83.64;97881.56;10314691;28;20136;-65
2020/12/28 02:15:02;;;;;;;4.10;1.85;;;;;;;3.19;83.82;97885.16;10310079;28;20134;-63
2020/12/28 02:19:58;;;;;;;3.17;1.35;;;;;;;3.23;83.48;97864.47;10320693;28;20340;-66
2020/12/28 02:24:54;;;;;;;3.10;1.48;;;;;;;3.17;83.91;97867.38;10313240;28;20079;-65
2020/12/28 02:29:50;;;;;;;3.90;1.88;;;;;;;3.17;84.14;97861.19;10322794;28;20760;-65
2020/12/28 02:34:46;;;;;;;2.80;1.45;;;;;;;3.19;84.14;97858.16;10298471;28;20048;-65
2020/12/28 02:39:42;;;;;;;3.08;1.48;;;;;;;3.14;83.75;97857.25;10318143;28;20044;-66
2020/12/28 02:44:38;;;;;;;5.18;1.85;;;;;;;3.07;83.74;97862.44;10319625;28;20043;-65
2020/12/28 02:49:34;;;;;;;4.18;1.50;;;;;;;3.10;84.09;97869.84;10323305;28;20055;-66
2020/12/28 02:54:30;;;;;;;4.45;1.60;;;;;;;3.10;84.29;97877.94;10319957;28;20059;-65
2020/12/28 02:59:27;;;;;;;3.22;1.63;;;;;;;3.16;84.38;97882.00;10304646;28;20032;-65
2020/12/28 03:04:23;;;;;;;4.07;1.65;;;;;;;3.17;84.02;97883.56;10320027;28;20052;-65
2020/12/28 03:09:19;;;;;;;3.67;1.38;;;;;;;3.24;83.54;97887.63;10316914;28;20048;-65
2020/12/28 03:14:15;;;;;;;3.45;1.55;;;;;;;3.29;83.49;97879.28;10315092;28;20929;-66
2020/12/28 03:19:11;;;;;;;4.03;1.52;;;;;;;3.36;83.65;97874.91;10313256;28;20056;-65
2020/12/28 03:24:07;;;;;;;3.30;1.63;;;;;;;3.38;83.56;97874.56;10305842;28;20071;-64
2020/12/28 03:29:03;;;;;;;4.22;1.85;;;;;;;3.34;83.93;97887.16;10328721;28;20569;-63
2020/12/28 03:33:59;;;;;;;5.13;1.73;;;;;;;3.42;83.55;97883.56;10309229;28;20055;-64
2020/12/28 03:38:55;;;;;;;3.53;1.70;;;;;;;3.41;83.13;97876.56;10320445;28;20051;-64
2020/12/28 03:43:51;;;;;;;3.78;1.73;;;;;;;3.44;83.93;97878.63;10313914;28;20060;-64
2020/12/28 03:48:47;;;;;;;3.80;1.58;;;;;;;3.46;83.02;97889.88;10315163;28;20420;-64
2020/12/28 03:53:43;;;;;;;2.78;1.42;;;;;;;3.50;83.09;97896.16;10306291;28;20049;-64
2020/12/28 03:58:39;;;;;;;3.47;1.70;;;;;;;3.50;83.78;97901.53;10307766;28;20055;-63
2020/12/28 04:03:35;;;;;;;3.15;1.35;;;;;;;3.50;83.50;97896.16;10308732;28;20094;-64
2020/12/28 04:08:31;;;;;;;4.25;1.60;;;;;;;3.42;84.15;97897.06;10313581;28;20047;-64
2020/12/28 04:13:28;;;;;;;3.45;1.58;;;;;;;3.49;83.62;97878.38;10312269;28;20395;-64
2020/12/28 04:18:24;;;;;;;3.00;1.52;;;;;;;3.56;83.79;97875.88;10313681;28;20044;-65
2020/12/28 04:23:20;;;;;;;3.65;1.80;;;;;;;3.61;83.63;97863.28;10305623;28;20131;-65
2020/12/28 04:28:16;;;;;;;3.25;1.35;;;;;;;3.62;83.54;97862.13;10317210;28;20040;-65
2020/12/28 04:33:12;;;;;;;3.03;1.45;;;;;;;3.60;83.85;97851.69;10301264;28;20086;-64
2020/12/28 04:38:09;;;;;;;5.20;1.67;;;;;;;3.61;83.47;97853.25;10298258;28;20619;-65
2020/12/28 04:43:13;;;;;;;5.22;1.40;;;;;;;3.54;84.01;97867.31;10314009;28;20059;-65
2020/12/28 04:48:10;;;;;;;3.45;1.55;;;;;;;3.51;84.03;97881.53;10311401;28;20048;-65
2020/12/28 04:53:06;;;;;;;3.95;1.30;;;;;;;3.46;83.77;97879.06;10321845;28;20052;-64
2020/12/28 04:58:02;;;;;;;2.88;1.30;;;;;;;3.41;84.45;97898.19;10317320;28;20044;-64
2020/12/28 05:02:59;;;;;;;3.65;1.65;;;;;;;3.40;84.79;97890.44;10323888;28;20048;-65
2020/12/28 05:07:55;;;;;;;2.63;1.10;;;;;;;3.43;84.48;97895.94;10302004;28;20044;-64
2020/12/28 05:12:51;;;;;;;2.90;1.20;;;;;;;3.54;84.06;97891.66;10311021;28;20459;-65
2020/12/28 05:17:54;;;;;;;3.72;1.10;;;;;;;3.54;84.62;97890.88;10297794;28;20085;-65
2020/12/28 05:22:51;;;;;;;3.42;1.25;;;;;;;3.61;84.45;97885.66;10301990;28;20040;-65
2020/12/28 05:27:48;;;;;;;4.20;1.02;;;;;;;3.64;83.69;97889.59;10314232;28;20499;-65
2020/12/28 05:32:45;;;;;;;2.38;1.13;;;;;;;3.68;84.27;97901.31;10289783;28;20041;-66
2020/12/28 05:37:46;;;;;;;2.85;0.85;;;;;;;3.71;83.31;97889.81;10314760;28;20077;-65
2020/12/28 05:42:50;;;;;;;1.83;1.10;;;;;;;3.71;84.27;97908.72;10324851;28;20075;-66
2020/12/28 05:47:57;;;;;;;2.38;1.05;;;;;;;3.85;83.34;97906.44;10332020;28;20040;-66
2020/12/28 05:52:59;;;;;;;2.22;1.00;;;;;;;3.75;83.52;97896.91;10317819;28;20508;-65
2020/12/28 05:57:57;;;;;;;2.45;1.10;;;;;;;3.89;82.77;97887.63;10322915;28;20937;-65
2020/12/28 06:02:53;;;;;;;2.63;1.00;;;;;;;3.84;82.74;97874.38;10307324;28;20048;-65
2020/12/28 06:07:49;;;;;;;2.33;1.10;;;;;;;3.82;82.68;97880.09;10316485;28;20041;-65
2020/12/28 06:12:56;;;;;;;3.28;1.33;;;;;;;3.87;81.27;97889.88;10315744;28;20408;-65
2020/12/28 06:17:51;;;;;;;2.92;1.10;;;;;;;3.75;80.29;97890.72;10317929;28;20052;-65
2020/12/28 06:22:47;;;;;;;2.63;1.08;;;;;;;3.78;80.12;97903.53;10296075;28;20048;-65
2020/12/28 06:27:45;;;;;;;3.45;1.30;;;;;;;3.65;78.63;97912.81;10312558;28;20412;-66
2020/12/28 06:32:43;;;;;;;3.53;1.33;;;;;;;3.62;78.74;97924.28;10309760;28;20080;-65
2020/12/28 06:37:45;;;;;;;3.55;1.50;;;;;;;3.59;77.77;97936.56;10324655;28;20508;-65
2020/12/28 06:42:41;;;;;;;6.10;1.60;;;;;;;3.57;77.43;97934.22;10313464;28;20336;-65
2020/12/28 06:47:37;;;;;;;4.05;1.70;;;;;;;3.56;76.43;97931.84;10319484;28;20047;-65
2020/12/28 06:52:33;;;;;;;3.65;1.90;;;;;;;3.40;76.45;97929.03;10314522;28;20051;-65
2020/12/28 06:57:29;;;;;;;5.88;1.70;;;;;;;3.43;75.48;97914.06;10318645;28;20037;-65
2020/12/28 07:02:26;;;;;;;3.80;1.73;;;;;;;3.37;74.46;97918.91;10303177;28;20055;-65
2020/12/28 07:07:22;;;;;;;4.05;1.80;;;;;;;3.40;74.48;97920.94;10303402;28;20044;-66
2020/12/28 07:12:20;;;;;;;4.53;1.67;;;;;;;3.35;74.22;97937.38;10310584;28;20106;-65
2020/12/28 07:17:25;;;;;;;4.88;2.00;;;;;;;3.37;74.23;97945.91;10319693;28;20044;-65
2020/12/28 07:22:23;;;;;;;5.00;2.00;;;;;;;3.30;74.71;97954.56;10294151;28;20041;-65
2020/12/28 07:27:19;;;;;;;6.28;2.55;;;;;;;3.29;74.32;97955.69;10312429;28;20049;-65
2020/12/28 07:32:17;;;;;;;4.00;1.88;;;;;;;3.22;73.38;97949.28;10309800;28;20059;-66
2020/12/28 07:37:13;;;;;;;4.63;2.08;;;;;;;3.20;73.47;97946.13;10318790;28;20075;-64
2020/12/28 07:42:09;;;;;;;4.68;1.90;;;;;;;3.14;74.63;97959.84;10313551;28;20416;-64
2020/12/28 07:47:13;;;;;;;5.93;2.10;;;;;;;3.22;74.10;97943.88;10304813;28;20041;-66
2020/12/28 07:52:14;;;;;;;;;;;;;;;3.23;75.10;97950.88;10308179;28;20086;-66
2020/12/28 07:57:19;;;;;;;5.90;2.42;;;;;;;3.28;74.35;97958.75;10303762;28;19920;-66
2020/12/28 08:02:50;;;;;;;4.50;2.40;;;;;;;3.39;74.20;97949.06;10299988;28;20139;-66
2020/12/28 08:07:46;;;;;;;6.13;2.30;;;;;;;3.40;73.74;97945.22;10303932;28;20049;-64
2020/12/28 08:13:02;;;;;;;6.28;2.10;;;;;;;3.47;74.67;97950.84;10310807;28;20657;-66
2020/12/28 08:18:05;;;;;;;4.93;2.17;;;;;;;3.15;73.32;97953.31;10305630;28;20036;-65
2020/12/28 08:23:02;;;;;;;6.25;2.55;;;;;;;3.42;74.20;97953.78;10295869;28;20048;-65
2020/12/28 08:28:02;;;;;;;4.78;2.17;;;;;;;3.38;74.30;97971.78;10299810;28;20068;-65
2020/12/28 08:33:01;;;;;;;5.32;2.13;;;;;;;3.34;73.51;98003.28;10296124;28;20060;-65
2020/12/28 08:37:58;;;;;;;5.15;2.42;;;;;;;3.43;73.59;98003.97;10308520;28;20131;-66
2020/12/28 08:42:56;;;;;;;6.60;2.47;;;;;;;3.53;73.27;97998.16;10308436;28;20049;-66
2020/12/28 08:47:55;;;;;;;6.55;2.90;;;;;;;3.52;72.40;98001.97;10295488;28;20044;-65
2020/12/28 08:52:54;;;;;;;6.47;3.00;;;;;;;3.21;72.54;98007.91;10302177;28;20105;-66
2020/12/28 08:57:53;;;;;;;5.10;2.40;;;;;;;3.32;72.79;98008.25;10306856;28;20040;-65
2020/12/28 09:02:55;;;;;;;5.88;2.50;;;;;;;3.25;72.95;98024.19;10308734;28;20500;-66
2020/12/28 09:07:51;;;;;;;7.53;2.50;;;;;;;3.21;72.94;98034.13;10305737;28;20056;-66
2020/12/28 09:12:47;;;;;;;8.90;3.13;;;;;;;3.13;73.33;98025.78;10305533;28;20129;-66
2020/12/28 09:17:43;;;;;;;6.60;2.85;;;;;;;3.23;74.39;98024.56;10303131;28;20132;-66
2020/12/28 09:22:39;;;;;;;9.10;3.10;;;;;;;3.25;75.01;98018.81;10308459;28;20056;-66
2020/12/28 09:27:35;;;;;;;7.28;3.15;;;;;;;3.22;74.43;98008.69;10317830;28;20052;-69
2020/12/28 09:32:31;;;;;;;6.57;3.33;;;;;;;3.35;75.43;98010.28;10302911;28;20045;-67
2020/12/28 09:37:27;;;;;;;5.88;3.08;;;;;;;3.25;75.53;98018.81;10302502;28;20090;-67
2020/12/28 09:42:24;;;;;;;8.05;3.15;;;;;;;3.44;75.11;98021.78;10311092;28;20055;-65
2020/12/28 09:47:20;;;;;;;6.63;3.05;;;;;;;3.46;75.58;98019.53;10306533;28;20040;-66
2020/12/28 09:52:16;;;;;;;5.95;2.67;;;;;;;3.61;75.57;98009.19;10311943;28;20045;-65
2020/12/28 09:57:13;;;;;;;6.53;2.75;;;;;;;3.64;75.45;98009.28;10310661;28;20160;-66
2020/12/28 10:18:09;;;;;;;7.35;3.85;;;;;;;4.18;73.37;98016.34;10413733;23;20077;-64
2020/12/28 10:23:05;;;;;;;7.40;3.78;;;;;;;4.33;73.35;98006.72;10132244;28;20046;-63
2020/12/28 10:28:02;;;;;;;8.18;3.40;;;;;;;4.63;71.43;97994.44;10117888;28;20055;-63
2020/12/28 10:32:58;;;;;;;8.93;3.60;;;;;;;5.19;71.46;97999.00;10046688;28;20526;-63
2020/12/28 10:37:55;;;;;;;8.80;3.90;;;;;;;5.44;69.88;97998.84;10082933;28;20098;-63
2020/12/28 10:42:51;;;;;;;6.85;3.80;;;;;;;5.20;69.34;98011.44;10066746;28;20051;-63
2020/12/28 10:47:47;;;;;;;7.38;3.45;;;;;;;4.94;69.28;98019.22;10080140;28;20090;-64
2020/12/28 10:52:44;;;;;;;7.10;3.45;;;;;;;4.77;70.31;98017.63;10073699;28;20482;-64
2020/12/28 10:57:40;;;;;;;7.47;3.40;;;;;;;4.68;70.32;98034.00;10074359;28;20062;-65
2020/12/28 11:02:36;;;;;;;7.30;3.83;;;;;;;4.67;71.24;98027.03;10069337;28;20044;-64
2020/12/28 11:07:32;;;;;;;7.70;3.53;;;;;;;4.70;71.15;98030.97;10054485;28;20047;-65
2020/12/28 11:12:28;;;;;;;6.88;3.78;;;;;;;4.65;71.47;98021.16;10043914;28;20054;-66
2020/12/28 11:17:24;;;;;;;7.25;3.35;;;;;;;4.58;72.57;98010.91;10080217;28;20054;-65
2020/12/28 11:22:20;;;;;;;6.70;3.80;;;;;;;4.53;72.21;98016.59;10083273;28;20146;-64
2020/12/28 11:27:17;;;;;;;7.63;3.70;;;;;;;4.50;72.52;98027.28;10070426;28;20047;-64
2020/12/28 11:32:13;;;;;;;7.90;4.30;;;;;;;4.47;72.74;98022.56;10089475;28;20113;-65
2020/12/28 11:37:09;;;;;;;6.28;3.45;;;;;;;4.48;72.10;98024.13;10091516;28;20058;-64
2020/12/28 11:42:05;;;;;;;9.02;4.10;;;;;;;4.61;72.39;98033.81;10111013;28;20055;-64
2020/12/28 11:47:01;;;;;;;7.57;3.75;;;;;;;4.68;71.99;98023.16;10104065;28;20047;-65
2020/12/28 11:51:57;;;;;;;8.88;4.25;;;;;;;4.71;72.14;98006.25;10083403;28;20122;-64
2020/12/28 11:56:53;;;;;;;7.80;3.38;;;;;;;4.72;72.41;98017.88;10080554;28;20059;-64
2020/12/28 12:01:50;;;;;;;6.80;3.55;;;;;;;4.59;71.78;98009.00;10085484;28;20480;-65
2020/12/28 12:06:46;;;;;;;7.45;3.88;;;;;;;4.61;72.98;98012.16;10090849;28;20502;-64
2020/12/28 12:11:44;;;;;;;9.23;4.10;;;;;;;4.56;72.70;98021.31;10087667;28;20050;-66
2020/12/28 12:16:40;;;;;;;7.72;4.13;;;;;;;4.66;72.41;98014.59;10089058;28;20062;-64
2020/12/28 12:21:36;;;;;;;8.38;3.92;;;;;;;4.63;73.30;98031.53;10100561;28;20122;-64
2020/12/28 12:26:35;;;;;;;6.60;3.75;;;;;;;4.73;72.93;98025.63;10085356;28;20067;-63
2020/12/28 12:31:31;;;;;;;7.53;3.70;;;;;;;4.57;73.42;98035.59;10086061;28;20047;-64
2020/12/28 12:36:27;;;;;;;7.72;4.18;;;;;;;4.73;72.88;98032.97;10088640;28;20521;-64
2020/12/28 12:41:23;;;;;;;7.43;3.83;;;;;;;4.81;73.34;98038.25;10093334;28;20059;-64
2020/12/28 12:46:19;;;;;;;5.85;3.50;;;;;;;4.77;73.57;98047.41;10092855;28;20057;-64
2020/12/28 12:51:15;;;;;;;7.50;3.85;;;;;;;4.87;73.61;98046.88;10090429;28;20047;-64
2020/12/28 12:56:24;;;;;;;6.55;3.65;;;;;;;4.88;73.46;98043.06;10098093;28;20429;-64
2020/12/28 13:01:20;;;;;;;7.22;3.63;;;;;;;4.85;73.49;98043.78;10107048;28;20083;-64
2020/12/28 13:06:16;;;;;;;6.25;3.55;;;;;;;4.93;73.55;98052.88;10113888;28;20050;-65
2020/12/28 13:11:12;;;;;;;9.13;4.63;;;;;;;5.03;73.83;98041.53;10084830;28;20050;-64
2020/12/28 13:16:09;;;;;;;6.95;3.42;;;;;;;5.18;74.26;98051.63;10093158;28;20043;-64
2020/12/28 13:21:05;;;;;;;6.70;3.38;;;;;;;5.49;73.46;98050.84;10096256;28;20071;-65
2020/12/28 13:26:01;;;;;;;6.88;2.80;;;;;;;6.11;72.67;98048.50;10091881;28;20051;-64
2020/12/28 13:30:57;;;;;;;7.53;2.70;;;;;;;6.28;70.90;98051.94;10092580;28;20066;-64
2020/12/28 13:35:53;;;;;;;6.13;3.30;;;;;;;6.15;71.30;98047.78;10090235;28;20057;-64
2020/12/28 13:40:49;;;;;;;9.00;3.33;;;;;;;6.21;71.79;98051.78;10120559;28;20077;-63
2020/12/28 13:45:45;;;;;;;6.57;3.00;;;;;;;6.33;71.61;98048.94;10118984;28;20054;-64
2020/12/28 13:50:41;;;;;;;8.38;3.42;;;;;;;6.28;71.03;98057.38;10117890;28;20426;-64
2020/12/28 13:55:38;;;;;;;6.03;2.78;;;;;;;6.09;72.10;98061.63;10097797;28;20055;-63
2020/12/28 14:00:34;;;;;;;6.70;3.28;;;;;;;5.96;72.36;98084.53;10111782;28;20051;-64
2020/12/28 14:05:30;;;;;;;7.97;3.90;;;;;;;5.98;71.79;98087.69;10080462;28;20098;-64
2020/12/28 14:10:26;;;;;;;5.43;3.00;;;;;;;5.87;72.84;98092.03;10091452;28;20047;-64
2020/12/28 14:15:22;;;;;;;7.25;3.70;;;;;;;5.89;72.29;98095.19;10088409;28;20066;-64
2020/12/28 14:20:18;;;;;;;6.13;3.35;;;;;;;5.88;72.18;98085.50;10089548;28;20090;-65
2020/12/28 14:25:15;;;;;;;6.25;3.45;;;;;;;5.69;72.75;98086.97;10072556;28;20414;-65
2020/12/28 14:30:12;;;;;;;6.50;3.28;;;;;;;5.72;72.96;98079.28;10092747;28;20054;-64
2020/12/28 14:35:11;;;;;;;5.88;2.95;;;;;;;5.63;73.04;98079.44;10094652;28;20137;-64
2020/12/28 14:40:07;;;;;;;6.32;3.60;;;;;;;5.62;73.00;98086.03;10080158;28;20079;-64
2020/12/28 14:45:03;;;;;;;6.45;3.60;;;;;;;5.71;73.77;98083.94;10086697;28;20122;-64
2020/12/28 14:49:59;;;;;;;7.15;3.63;;;;;;;5.55;73.70;98081.22;10105574;28;20046;-64
2020/12/28 14:54:55;;;;;;;9.88;3.65;;;;;;;5.57;73.97;98078.94;10106098;28;20054;-64
2020/12/28 14:59:51;;;;;;;8.35;4.25;;;;;;;5.36;74.21;98083.78;10078451;28;20061;-64
2020/12/28 15:04:48;;;;;;;7.90;4.13;;;;;;;5.33;74.05;98089.91;10082543;28;20472;-65
2020/12/28 15:09:44;;;;;;;7.43;4.20;;;;;;;5.25;73.98;98095.16;10086056;28;20047;-64
2020/12/28 15:14:40;;;;;;;7.63;3.78;;;;;;;5.04;74.52;98094.56;10119704;28;20058;-64
2020/12/28 15:19:36;;;;;;;7.15;3.75;;;;;;;4.95;74.45;98108.25;10096725;28;20043;-64
2020/12/28 15:24:32;;;;;;;7.97;4.30;;;;;;;4.76;75.33;98105.38;10102524;28;20047;-64
2020/12/28 15:29:28;;;;;;;7.72;4.10;;;;;;;4.79;74.47;98110.88;10115799;28;20050;-64
2020/12/28 15:34:24;;;;;;;9.70;4.55;;;;;;;4.63;75.11;98112.72;10121584;28;20739;-63
2020/12/28 15:39:20;;;;;;;8.80;4.28;;;;;;;4.62;75.69;98119.28;10102593;28;20415;-63
2020/12/28 15:44:17;;;;;;;9.27;5.18;;;;;;;4.69;76.02;98127.63;10101929;28;20073;-63
2020/12/28 15:49:12;;;;;;;6.93;4.18;;;;;;;4.79;75.78;98121.72;10100536;28;20110;-63
2020/12/28 15:54:10;;;;;;;8.30;4.78;;;;;;;4.84;76.00;98136.94;10116440;28;20051;-64
2020/12/28 15:59:06;;;;;;;10.27;5.30;;;;;;;4.61;74.44;98142.84;10111687;28;21563;-62
2020/12/28 16:04:02;;;;;;;10.43;5.40;;;;;;;4.78;75.65;98141.81;10102255;28;20059;-63
2020/12/28 16:08:58;;;;;;;9.52;4.90;;;;;;;4.74;74.27;98151.75;10103243;28;20122;-62
2020/12/28 16:13:54;;;;;;;13.30;5.80;;;;;;;4.77;74.52;98161.88;10083794;28;20077;-63
2020/12/28 16:18:51;;;;;;;9.85;4.47;;;;;;;4.87;75.27;98165.25;10102731;28;20061;-63
2020/12/28 16:23:47;;;;;;;9.55;5.03;;;;;;;4.82;74.41;98169.75;10103366;28;20054;-62
2020/12/28 16:28:43;;;;;;;9.82;5.68;;;;;;;4.81;74.32;98168.19;10119094;28;20074;-63
2020/12/28 16:33:39;;;;;;;9.95;5.57;;;;;;;4.56;73.87;98172.06;10112584;28;20142;-63
2020/12/28 16:38:36;;;;;;;10.88;6.40;;;;;;;4.65;74.47;98170.03;10115705;28;20074;-64
2020/12/28 16:43:32;;;;;;;10.45;6.07;;;;;;;4.70;75.14;98167.06;10083984;28;20117;-64
2020/12/28 16:48:29;;;;;;;12.13;5.75;;;;;;;4.77;73.55;98172.69;10097716;28;20553;-64
2020/12/28 16:53:26;;;;;;;10.23;5.80;;;;;;;4.83;74.27;98175.97;10104841;28;20055;-62
2020/12/28 16:58:25;;;;;;;9.57;5.72;;;;;;;4.92;74.33;98178.53;10110472;28;20138;-64
2020/12/28 17:03:21;;;;;;;11.77;6.53;;;;;;;4.84;74.05;98174.84;10111209;28;20399;-63
2020/12/28 17:08:18;;;;;;;10.60;5.65;;;;;;;4.82;74.04;98175.16;10101133;28;20058;-63
2020/12/28 17:13:14;;;;;;;10.35;6.00;;;;;;;4.85;73.16;98174.50;10110521;28;20043;-63
2020/12/28 17:18:10;;;;;;;13.80;6.47;;;;;;;4.81;73.85;98176.31;10114413;28;20054;-64
2020/12/28 17:23:06;;;;;;;10.75;6.03;;;;;;;4.60;73.73;98167.56;10097551;28;20055;-64
2020/12/28 17:28:02;;;;;;;11.57;6.88;;;;;;;4.74;72.72;98173.41;10104918;28;20046;-64
2020/12/28 17:32:59;;;;;;;11.82;6.82;;;;;;;4.54;73.46;98179.72;10107386;28;20082;-65
2020/12/28 17:37:56;;;;;;;12.05;6.80;;;;;;;4.61;73.80;98163.72;10112876;28;20422;-65
2020/12/28 17:42:52;;;;;;;14.82;6.88;;;;;;;4.70;72.86;98156.25;10115894;28;20046;-65
2020/12/28 17:47:52;;;;;;;12.82;6.65;;;;;;;4.57;72.90;98173.63;10106231;28;20469;-65
2020/12/28 17:52:49;;;;;;;11.55;6.22;;;;;;;4.32;73.22;98172.88;10124174;28;20533;-65
2020/12/28 17:57:46;;;;;;;10.30;6.00;;;;;;;4.50;73.96;98166.06;10097152;28;20798;-63
2020/12/28 18:02:42;;;;;;;12.18;6.68;;;;;;;4.41;73.09;98160.81;10112500;28;20051;-65
2020/12/28 18:07:38;;;;;;;11.10;6.60;;;;;;;4.50;73.42;98152.53;10117047;28;20368;-64
2020/12/28 18:12:35;;;;;;;12.43;6.40;;;;;;;4.26;73.99;98164.19;10084422;28;20070;-63
2020/12/28 18:17:31;;;;;;;13.20;7.05;;;;;;;4.38;73.54;98166.88;10095264;28;20407;-64
2020/12/28 18:22:28;;;;;;;17.02;8.30;;;;;;;4.41;74.08;98177.03;10090418;28;20057;-64
2020/12/28 18:27:24;;;;;;;12.57;7.18;;;;;;;4.28;73.81;98178.16;10078558;28;20471;-64
2020/12/28 18:32:21;;;;;;;12.73;7.28;;;;;;;4.36;73.79;98179.97;10089975;28;20043;-64
2020/12/28 18:37:17;;;;;;;12.27;6.90;;;;;;;4.43;72.64;98174.78;10077069;28;20506;-63
2020/12/28 18:42:29;;;;;;;11.52;6.70;;;;;;;4.45;72.05;98165.53;10087166;28;20130;-64
2020/12/28 18:47:25;;;;;;;12.68;6.63;;;;;;;4.50;72.55;98162.59;10102502;28;20427;-64
2020/12/28 18:52:22;;;;;;;11.02;7.10;;;;;;;4.38;73.15;98176.91;10072946;28;20206;-64
2020/12/28 18:57:19;;;;;;;13.63;5.97;;;;;;;4.40;73.31;98175.44;10085749;28;20538;-64
2020/12/28 19:02:15;;;;;;;10.40;6.60;;;;;;;4.42;73.88;98178.59;10088872;28;20051;-64
2020/12/28 19:07:11;;;;;;;11.38;6.88;;;;;;;4.45;73.20;98171.72;10076028;28;20054;-66
2020/12/28 19:12:08;;;;;;;12.80;7.22;;;;;;;4.42;73.67;98175.13;10085900;28;20051;-64
2020/12/28 19:17:05;;;;;;;11.60;6.63;;;;;;;4.47;73.43;98176.81;10081294;28;20061;-69
2020/12/28 19:22:03;;;;;;;11.23;6.85;;;;;;;4.51;73.25;98177.72;10089045;28;20047;-64
2020/12/28 19:27:00;;;;;;;14.57;7.60;;;;;;;4.36;73.02;98163.75;10085984;28;20580;-65
2020/12/28 19:31:57;;;;;;;14.13;8.15;;;;;;;4.32;72.78;98175.56;10105444;28;20058;-65
2020/12/28 19:37:00;;;;;;;13.02;6.90;;;;;;;4.37;72.55;98168.00;10088840;28;20043;-64
2020/12/28 19:41:56;;;;;;;12.90;7.18;;;;;;;4.52;72.98;98171.16;10100566;28;20128;-65
2020/12/28 19:46:53;;;;;;;12.80;7.05;;;;;;;4.50;72.38;98173.41;10081268;28;20043;-65
2020/12/28 19:51:50;;;;;;;11.85;7.32;;;;;;;4.35;71.99;98178.38;10075416;28;20092;-65
2020/12/28 19:56:50;;;;;;;13.57;7.60;;;;;;;4.48;72.43;98173.78;10097363;28;20132;-65
2020/12/28 20:01:47;;;;;;;12.40;7.13;;;;;;;4.48;72.19;98183.78;10106193;28;20059;-64
2020/12/28 20:06:53;;;;;;;13.10;7.50;;;;;;;4.42;72.54;98189.44;10101028;28;20140;-65
2020/12/28 20:11:49;;;;;;;12.18;7.53;;;;;;;4.51;72.47;98188.53;10103013;28;20046;-65
2020/12/28 20:16:47;;;;;;;13.05;7.32;;;;;;;4.36;72.19;98185.38;10083444;28;20046;-65
2020/12/28 20:21:43;;;;;;;15.65;8.25;;;;;;;4.34;73.13;98182.22;10098464;28;20078;-65
2020/12/28 20:26:40;;;;;;;14.20;8.68;;;;;;;4.20;72.55;98177.16;10082938;28;20078;-65
2020/12/28 20:31:36;;;;;;;11.90;7.70;;;;;;;4.28;73.29;98178.16;10096533;28;20506;-64
2020/12/28 20:36:32;;;;;;;13.18;7.55;;;;;;;4.27;74.10;98176.59;10107394;28;20481;-65
2020/12/28 20:41:28;;;;;;;11.50;7.47;;;;;;;4.29;73.57;98184.34;10100088;28;20058;-65
2020/12/28 20:46:24;;;;;;;14.25;7.85;;;;;;;4.40;73.48;98180.84;10096157;28;20103;-63
2020/12/28 20:51:20;;;;;;;17.92;7.95;;;;;;;4.50;73.15;98168.00;10049292;28;20194;-63
2020/12/28 20:56:17;;;;;;;14.25;7.80;;;;;;;4.57;73.28;98173.63;10064595;28;20467;-64
2020/12/28 21:01:13;;;;;;;13.25;7.88;;;;;;;4.59;73.44;98171.38;10084536;28;20143;-65
2020/12/28 21:06:09;;;;;;;12.85;7.93;;;;;;;4.62;72.69;98165.31;10090362;28;20126;-64
2020/12/28 21:11:05;;;;;;;13.25;7.95;;;;;;;4.47;72.84;98165.97;10104603;28;20174;-65
2020/12/28 21:16:01;;;;;;;13.07;8.13;;;;;;;4.56;72.27;98161.25;10090670;28;20767;-64
2020/12/28 21:20:57;;;;;;;12.55;6.95;;;;;;;4.53;72.43;98151.88;10092216;28;20046;-66
2020/12/28 21:25:53;;;;;;;11.90;7.68;;;;;;;4.58;72.80;98150.88;10083636;28;20460;-65
2020/12/28 21:30:50;;;;;;;11.63;7.30;;;;;;;4.44;72.45;98151.22;10094539;28;20454;-65
2020/12/28 21:35:46;;;;;;;11.07;7.30;;;;;;;4.26;72.89;98158.78;10079817;28;20051;-66
2020/12/28 21:40:42;;;;;;;11.85;7.10;;;;;;;4.26;72.73;98152.56;10057262;28;20463;-65
2020/12/28 21:45:38;;;;;;;13.35;7.40;;;;;;;4.14;73.77;98150.66;10098879;28;20687;-65
2020/12/28 21:50:34;;;;;;;13.80;8.27;;;;;;;4.17;74.53;98152.69;10087893;28;20103;-65
2020/12/28 21:55:30;;;;;;;13.35;8.13;;;;;;;4.30;74.27;98148.84;10076869;28;20078;-64
2020/12/28 22:00:30;;;;;;;13.57;8.77;;;;;;;4.37;74.96;98140.97;10085997;28;20069;-65
2020/12/28 22:05:26;;;;;;;12.23;7.93;;;;;;;4.41;74.95;98132.97;10093667;28;20051;-65
2020/12/28 22:10:22;;;;;;;12.13;7.60;;;;;;;4.31;75.90;98134.19;10101069;28;20051;-65
2020/12/28 22:15:19;;;;;;;15.45;9.02;;;;;;;4.16;75.95;98126.78;10070946;28;20243;-65
2020/12/28 22:20:18;;;;;;;13.18;8.15;;;;;;;4.15;76.91;98130.59;10095113;28;20083;-65
2020/12/28 22:25:15;;;;;;;13.77;8.57;;;;;;;4.10;77.19;98133.53;10105207;28;20078;-65
2020/12/28 22:30:11;;;;;;;15.98;8.77;;;;;;;4.18;76.75;98129.94;10092576;28;20497;-65
2020/12/28 22:35:08;;;;;;;14.93;8.52;;;;;;;4.27;77.07;98129.78;10095620;28;20054;-65
2020/12/28 22:40:05;;;;;;;14.80;9.20;;;;;;;4.03;78.04;98133.31;10097554;28;20055;-65
2020/12/28 22:45:02;;;;;;;15.93;9.35;;;;;;;3.87;79.23;98131.25;10097062;28;20053;-65
2020/12/28 22:49:59;;;;;;;13.57;8.52;;;;;;;3.95;79.22;98122.25;10077799;28;20050;-65
2020/12/28 22:54:55;;;;;;;13.82;9.05;;;;;;;4.05;79.12;98128.34;10066480;28;20116;-65
2020/12/28 22:59:51;;;;;;;18.17;9.88;;;;;;;3.78;79.11;98134.06;10113313;28;20493;-65
2020/12/28 23:04:47;;;;;;;16.33;10.10;;;;;;;4.02;78.89;98131.72;10083222;28;20058;-65
2020/12/28 23:09:43;;;;;;;15.48;9.35;;;;;;;3.93;78.84;98129.91;10100059;28;20105;-64
2020/12/28 23:14:39;;;;;;;16.83;9.90;;;;;;;3.92;79.93;98131.06;10103182;28;20051;-65
2020/12/28 23:19:35;;;;;;;18.15;11.13;;;;;;;3.80;79.85;98125.59;10104101;28;20086;-64
2020/12/28 23:24:31;;;;;;;15.75;10.00;;;;;;;4.01;78.93;98125.50;10098407;28;20054;-64
2020/12/28 23:29:32;;;;;;;20.67;11.95;;;;;;;3.91;79.98;98132.16;10108812;28;20045;-66